METAR Data
IDs: Format: Raw Decoded Include TAF

Data at: 2113 UTC 06 Dec 2019

KDCM 062055Z AUTO 00000KT 10SM OVC100 11/03 A3016 RMK AO2
KDCM 062035Z AUTO 20003KT 10SM OVC090 11/03 A3017 RMK AO2
KDCM 062015Z AUTO 00000KT 10SM OVC090 11/02 A3017 RMK AO2
KDCM 061955Z AUTO 00000KT 10SM BKN100 11/02 A3017 RMK AO2
KDCM 061935Z AUTO 00000KT 10SM SCT050 SCT080 SCT110 11/03 A3017 RMK AO2
KDCM 061915Z AUTO 00000KT 10SM -RA SCT049 SCT060 BKN070 11/02 A3019 RMK AO2
KDCM 061855Z AUTO 21003KT 10SM BKN070 BKN085 11/01 A3020 RMK AO2
KDCM 061835Z AUTO 00000KT 10SM BKN070 BKN080 11/01 A3021 RMK AO2
KDCM 061815Z AUTO 00000KT 10SM SCT055 BKN080 OVC090 11/01 A3021 RMK AO2
KDCM 061755Z AUTO 00000KT 10SM SCT070 BKN090 OVC110 11/01 A3022 RMK AO2
KDCM 061735Z AUTO 22003KT 10SM BKN070 BKN080 11/00 A3022 RMK AO2
KDCM 061715Z AUTO 00000KT 10SM SCT080 11/01 A3023 RMK AO2
KDCM 061655Z AUTO 24003KT 10SM SCT090 11/01 A3024 RMK AO2
KDCM 061635Z AUTO 00000KT 10SM SCT100 10/00 A3024 RMK AO2
KDCM 061615Z AUTO 25003KT 10SM SCT100 10/01 A3025 RMK AO2
KDCM 061555Z AUTO 23003KT 10SM SCT110 10/00 A3025 RMK AO2 LTG DSNT W
KDCM 061535Z AUTO 21003KT 10SM SCT110 10/00 A3024 RMK AO2
KDCM 061515Z AUTO 20004KT 10SM BKN120 10/00 A3024 RMK AO2
KDCM 061455Z AUTO 20003KT 10SM BKN110 10/00 A3024 RMK AO2
KDCM 061435Z AUTO 23004KT 10SM BKN120 10/00 A3024 RMK AO2
KDCM 061415Z AUTO 19005KT 10SM BKN120 09/00 A3023 RMK AO2
KDCM 061355Z AUTO 00000KT 10SM SCT110 07/03 A3022 RMK AO2
KDCM 061335Z AUTO 00000KT 10SM SCT120 07/01 A3022 RMK AO2
KDCM 061315Z AUTO 00000KT 10SM BKN120 06/00 A3022 RMK AO2
KDCM 061255Z AUTO 00000KT 10SM BKN120 05/01 A3022 RMK AO2
KDCM 061235Z AUTO 00000KT 10SM BKN120 05/01 A3022 RMK AO2
KDCM 061215Z AUTO 00000KT 10SM BKN120 05/00 A3023 RMK AO2
KDCM 061155Z AUTO 00000KT 10SM OVC120 05/00 A3022 RMK AO2
KDCM 061135Z AUTO 00000KT 10SM OVC120 05/00 A3022 RMK AO2 LTG DSNT W
KDCM 061115Z AUTO 17004KT 10SM OVC120 05/00 A3022 RMK AO2 LTG DSNT W
KDCM 061055Z AUTO 00000KT 10SM BKN120 05/00 A3022 RMK AO2
KDCM 061035Z AUTO 14003KT 10SM SCT120 03/01 A3021 RMK AO2
KDCM 061015Z AUTO 00000KT 10SM CLR 04/00 A3021 RMK AO2
KDCM 060955Z AUTO 00000KT 10SM SCT120 03/00 A3021 RMK AO2
KDCM 060935Z AUTO 00000KT 10SM SCT120 03/00 A3021 RMK AO2 LTG DSNT W
KDCM 060915Z AUTO 00000KT 10SM CLR 03/00 A3022 RMK AO2
KDCM 060855Z AUTO 00000KT 10SM CLR 03/00 A3021 RMK AO2
KDCM 060835Z AUTO 00000KT 10SM CLR 03/00 A3021 RMK AO2
KDCM 060815Z AUTO 00000KT 10SM CLR 02/00 A3021 RMK AO2
KDCM 060755Z AUTO 00000KT 10SM CLR 02/M01 A3021 RMK AO2
KDCM 060735Z AUTO 00000KT 10SM CLR 02/M01 A3021 RMK AO2
KDCM 060715Z AUTO 00000KT 10SM CLR 03/M01 A3021 RMK AO2
KDCM 060655Z AUTO 00000KT 10SM CLR 03/M02 A3021 RMK AO2 LTG DSNT SE
KDCM 060635Z AUTO 19003KT 10SM CLR 04/M02 A3020 RMK AO2
KDCM 060555Z AUTO 00000KT 10SM CLR 03/00 A3019 RMK AO2
KDCM 060535Z AUTO 00000KT 10SM CLR 03/M01 A3020 RMK AO2
KDCM 060515Z AUTO 13003KT 10SM CLR 03/M01 A3021 RMK AO2
KDCM 060455Z AUTO 00000KT 10SM CLR 04/M01 A3021 RMK AO2
KDCM 060435Z AUTO 18003KT 10SM CLR 04/M01 A3021 RMK AO2
KDCM 060415Z AUTO 18003KT 10SM CLR 04/M01 A3021 RMK AO2
KDCM 060355Z AUTO 18005KT 10SM CLR 06/M01 A3021 RMK AO2
KDCM 060335Z AUTO 16003KT 10SM CLR 05/M01 A3020 RMK AO2
KDCM 060315Z AUTO 16003KT 10SM CLR 05/M01 A3019 RMK AO2
KDCM 060255Z AUTO 00000KT 10SM CLR 05/M02 A3019 RMK AO2
KDCM 060235Z AUTO 19003KT 10SM CLR 05/M01 A3019 RMK AO2
KDCM 060215Z AUTO 00000KT 10SM CLR 05/M01 A3018 RMK AO2
KDCM 060155Z AUTO 19004KT 10SM CLR 05/M01 A3018 RMK AO2
KDCM 060135Z AUTO 18003KT 10SM CLR 06/M01 A3018 RMK AO2
KDCM 060115Z AUTO 00000KT 10SM CLR 06/M01 A3018 RMK AO2
KDCM 060055Z AUTO 00000KT 10SM CLR 07/M01 A3017 RMK AO2
KDCM 060035Z AUTO 19003KT 10SM CLR 08/M02 A3017 RMK AO2
KDCM 060015Z AUTO 00000KT 10SM CLR 07/M01 A3017 RMK AO2
KDCM 052355Z AUTO 00000KT 10SM CLR 08/M02 A3016 RMK AO2
KDCM 052335Z AUTO 00000KT 10SM CLR 08/00 A3015 RMK AO2
KDCM 052315Z AUTO 00000KT 10SM CLR 08/M01 A3014 RMK AO2
KDCM 052255Z AUTO 00000KT 10SM CLR 10/00 A3014 RMK AO2
KDCM 052235Z AUTO 20003KT 7SM CLR 10/M01 A3013 RMK AO2
KDCM 052215Z AUTO 00000KT 7SM CLR 12/M02 A3013 RMK AO2
KDCM 052155Z AUTO 00000KT 7SM CLR 13/M02 A3012 RMK AO2
KDCM 052135Z AUTO 00000KT 7SM CLR 15/M03 A3012 RMK AO2
KDCM 052115Z AUTO 23003KT 7SM CLR 15/M04 A3011 RMK AO2
KDCM 052055Z AUTO 00000KT 10SM CLR 16/M06 A3010 RMK AO2
KDCM 052035Z AUTO 00000KT 10SM CLR 16/M06 A3010 RMK AO2
KDCM 052015Z AUTO 30004KT 7SM CLR 16/M06 A3009 RMK AO2
KDCM 051955Z AUTO 00000KT 7SM CLR 16/M06 A3009 RMK AO2
KDCM 051935Z AUTO 29003KT 7SM CLR 16/M06 A3009 RMK AO2
KDCM 051915Z AUTO 32003KT 7SM CLR 16/M06 A3009 RMK AO2
KDCM 051855Z AUTO 27003KT 10SM CLR 16/M06 A3009 RMK AO2
KDCM 051835Z AUTO 27003KT 7SM CLR 15/M06 A3009 RMK AO2 LTG DSNT E
KDCM 051815Z AUTO 24003KT 7SM CLR 16/M07 A3010 RMK AO2
KDCM 051755Z AUTO 35006KT 7SM CLR 15/M07 A3010 RMK AO2
KDCM 051735Z AUTO 29004KT 7SM CLR 15/M06 A3010 RMK AO2
KDCM 051715Z AUTO 30004KT 7SM CLR 15/M06 A3011 RMK AO2
KDCM 051655Z AUTO 00000KT 7SM CLR 14/M06 A3012 RMK AO2
KDCM 051635Z AUTO 32005KT 7SM CLR 13/M07 A3012 RMK AO2
KDCM 051615Z AUTO 34006KT 10SM CLR 13/M06 A3012 RMK AO2
KDCM 051555Z AUTO 35007KT 10SM CLR 13/M06 A3012 RMK AO2
KDCM 051535Z AUTO 36007KT 10SM CLR 12/M06 A3011 RMK AO2
KDCM 051515Z AUTO 01005KT 10SM CLR 12/M03 A3010 RMK AO2
KDCM 051455Z AUTO 35006KT 10SM CLR 11/M03 A3009 RMK AO2
KDCM 051435Z AUTO 36006KT 10SM CLR 10/M03 A3008 RMK AO2
KDCM 051415Z AUTO 35005KT 10SM CLR 10/M02 A3007 RMK AO2
KDCM 051355Z AUTO 35005KT 10SM CLR 08/M03 A3006 RMK AO2 LTG DSNT E
KDCM 051335Z AUTO 35007KT 10SM CLR 08/M03 A3005 RMK AO2
KDCM 051315Z AUTO 31005KT 10SM CLR 07/M02 A3004 RMK AO2
KDCM 051255Z AUTO 00000KT 10SM CLR 05/M02 A3003 RMK AO2
KDCM 051235Z AUTO 00000KT 10SM CLR 05/M02 A3003 RMK AO2
KDCM 051215Z AUTO 00000KT 10SM CLR 04/M02 A3002 RMK AO2
KDCM 051155Z AUTO 25004KT 10SM CLR 05/M02 A3001 RMK AO2
KDCM 051135Z AUTO 24003KT 10SM CLR 05/M03 A3000 RMK AO2
KDCM 051115Z AUTO 00000KT 10SM CLR 06/M03 A2999 RMK AO2
KDCM 051055Z AUTO 25003KT 10SM CLR 05/M03 A2997 RMK AO2
KDCM 051035Z AUTO 24004KT 10SM CLR 04/M02 A2996 RMK AO2
KDCM 051015Z AUTO 24003KT 10SM CLR 04/M02 A2995 RMK AO2
KDCM 050955Z AUTO 23004KT 10SM CLR 03/M02 A2994 RMK AO2
KDCM 050935Z AUTO 22003KT 10SM CLR 03/M02 A2993 RMK AO2
KDCM 050915Z AUTO 22003KT 10SM CLR 02/M02 A2992 RMK AO2